Time;durP1;ratioP1;P1;durP2;ratioP2;P2;SDS_P1;SDS_P2;PMS_P1;PMS_P2;Temp;Humidity;BMP_temperature;BMP_pressure;BME280_temperature;BME280_humidity;BME280_pressure;Samples;Min_cycle;Max_cycle;Signal;HPM_P1;HPM_P2
2021/11/27 00:01:34;;;;;;;10.52;6.30;;;;;;;0.80;75.30;98329.81;5027604;28;20088;-75
2021/11/27 00:04:00;;;;;;;11.52;6.72;;;;;;;0.77;75.27;98332.44;5027995;28;20033;-75
2021/11/27 00:06:26;;;;;;;15.50;7.65;;;;;;;0.74;75.74;98324.66;5023041;28;20034;-75
2021/11/27 00:08:52;;;;;;;10.23;6.53;;;;;;;0.71;76.16;98322.06;5025414;28;20564;-74
2021/11/27 00:11:17;;;;;;;12.00;7.50;;;;;;;0.74;76.87;98316.00;5022350;28;20026;-74
2021/11/27 00:13:43;;;;;;;10.85;6.88;;;;;;;0.82;76.41;98303.88;5024250;28;20407;-75
2021/11/27 00:16:08;;;;;;;11.00;6.20;;;;;;;0.91;76.33;98305.56;5037539;28;20042;-75
2021/11/27 00:18:34;;;;;;;12.45;6.70;;;;;;;0.93;76.45;98298.63;5040502;28;20043;-75
2021/11/27 00:21:09;;;;;;;10.65;6.47;;;;;;;0.90;75.48;98298.66;5022761;28;20123;-75
2021/11/27 00:23:36;;;;;;;12.93;7.78;;;;;;;0.83;75.92;98295.19;5020514;28;20546;-75
2021/11/27 00:26:04;;;;;;;11.45;6.72;;;;;;;0.73;75.78;98296.09;5021952;28;20040;-75
2021/11/27 00:28:29;;;;;;;12.57;7.50;;;;;;;0.64;76.04;98296.97;5025330;28;20129;-75
2021/11/27 00:30:58;;;;;;;14.57;7.93;;;;;;;0.53;76.09;98307.38;5019907;28;20061;-74
2021/11/27 00:33:25;;;;;;;14.60;7.20;;;;;;;0.41;75.92;98304.81;5024919;28;20033;-75
2021/11/27 00:35:50;;;;;;;14.27;7.00;;;;;;;0.29;76.01;98295.31;5022001;28;20116;-75
2021/11/27 00:38:16;;;;;;;12.30;6.67;;;;;;;0.19;76.64;98304.81;5024573;28;20398;-74
2021/11/27 00:40:42;;;;;;;14.77;8.40;;;;;;;0.09;76.76;98299.66;5021416;28;20084;-74
2021/11/27 00:43:09;;;;;;;14.13;7.47;;;;;;;-0.01;77.27;98298.78;5035570;28;20515;-75
2021/11/27 00:45:36;;;;;;;14.10;7.40;;;;;;;-0.09;77.19;98296.16;5024009;28;20030;-74
2021/11/27 00:48:03;;;;;;;12.27;7.60;;;;;;;-0.18;77.13;98296.19;5021613;28;20036;-75
2021/11/27 00:50:33;;;;;;;14.07;7.97;;;;;;;-0.24;77.72;98288.38;5038610;28;20412;-75
2021/11/27 00:53:02;;;;;;;10.80;6.40;;;;;;;-0.34;77.73;98282.34;5022650;28;20044;-74
2021/11/27 00:55:28;;;;;;;12.33;7.30;;;;;;;-0.42;77.71;98285.75;5023856;28;20392;-74
2021/11/27 00:57:54;;;;;;;16.53;7.70;;;;;;;-0.51;78.44;98282.28;5021543;28;20037;-74
2021/11/27 01:00:24;;;;;;;16.47;8.20;;;;;;;-0.56;78.15;98280.56;5020580;28;20420;-74
2021/11/27 01:02:50;;;;;;;15.50;8.20;;;;;;;-0.62;79.26;98280.56;5022671;28;20044;-74
2021/11/27 01:05:21;;;;;;;11.38;7.35;;;;;;;-0.68;79.25;98281.41;5022533;28;20037;-74
2021/11/27 01:07:47;;;;;;;12.27;7.17;;;;;;;-0.71;78.75;98271.00;5022696;28;20033;-74
2021/11/27 01:10:17;;;;;;;13.53;7.07;;;;;;;-0.77;79.58;98271.00;5027812;28;20124;-75
2021/11/27 01:12:43;;;;;;;13.43;6.73;;;;;;;-0.86;79.86;98273.56;5023114;28;20069;-74
2021/11/27 01:15:12;;;;;;;11.47;6.40;;;;;;;-0.89;80.06;98271.84;5022564;28;20121;-74
2021/11/27 01:17:37;;;;;;;11.43;7.03;;;;;;;-0.92;79.59;98277.00;5022971;28;20037;-75
2021/11/27 01:20:07;;;;;;;11.80;7.17;;;;;;;-0.93;79.67;98268.38;5005201;28;20041;-74
2021/11/27 01:22:32;;;;;;;10.63;7.20;;;;;;;-0.95;79.47;98262.31;5022401;28;20065;-74
2021/11/27 01:24:58;;;;;;;12.27;6.73;;;;;;;-0.96;79.27;98265.75;5022831;28;20098;-75
2021/11/27 01:27:26;;;;;;;11.37;6.37;;;;;;;-0.97;80.09;98270.94;5036963;28;20480;-75
2021/11/27 01:29:51;;;;;;;17.47;8.07;;;;;;;-1.03;80.27;98264.00;5038601;28;20033;-75
2021/11/27 01:32:17;;;;;;;13.43;6.73;;;;;;;-1.14;81.08;98260.53;5033456;28;20107;-74
2021/11/27 01:34:43;;;;;;;11.03;6.33;;;;;;;-1.17;80.43;98265.69;5019488;28;20555;-74
2021/11/27 01:37:09;;;;;;;12.70;6.87;;;;;;;-1.21;81.38;98258.75;5023909;28;20605;-74
2021/11/27 01:39:36;;;;;;;12.73;6.27;;;;;;;-1.22;81.28;98252.72;5035845;28;20034;-75
2021/11/27 01:42:02;;;;;;;11.73;6.23;;;;;;;-1.19;81.17;98257.03;5023861;28;20037;-75
2021/11/27 01:44:28;;;;;;;11.10;6.83;;;;;;;-1.18;81.17;98258.75;5018909;28;20029;-75
2021/11/27 01:46:54;;;;;;;13.00;7.07;;;;;;;-1.20;80.61;98260.50;5035926;28;20030;-75
2021/11/27 01:49:20;;;;;;;13.70;5.83;;;;;;;-1.21;80.99;98256.16;5022741;28;20152;-75
2021/11/27 01:51:46;;;;;;;11.83;6.47;;;;;;;-1.24;80.89;98263.94;5019899;28;20038;-75
2021/11/27 01:54:12;;;;;;;11.77;6.27;;;;;;;-1.25;80.57;98257.88;5034295;28;20683;-75
2021/11/27 01:56:45;;;;;;;12.20;6.40;;;;;;;-1.28;80.35;98249.22;5022413;28;20041;-75
2021/11/27 01:59:16;;;;;;;11.90;6.33;;;;;;;-1.33;81.17;98242.31;5019189;28;20037;-75
2021/11/27 02:01:42;;;;;;;11.60;6.00;;;;;;;-1.34;80.83;98250.97;5035493;28;20121;-75
2021/11/27 02:04:14;;;;;;;11.33;6.13;;;;;;;-1.34;81.05;98250.06;5018764;28;20030;-75
2021/11/27 02:06:41;;;;;;;13.43;6.27;;;;;;;-1.35;81.00;98240.59;5038823;28;20284;-75
2021/11/27 02:09:13;;;;;;;11.43;6.20;;;;;;;-1.36;80.62;98247.50;5020042;28;20113;-75
2021/11/27 02:11:39;;;;;;;;;;;;;;;-1.43;81.17;98243.13;5035869;28;20472;-75
2021/11/27 02:14:08;;;;;;;14.97;7.33;;;;;;;-1.47;81.65;98246.56;5005807;28;19964;-75
2021/11/27 02:16:45;;;;;;;15.40;7.40;;;;;;;-1.59;82.64;98234.44;5000096;28;20045;-75
2021/11/27 02:19:11;;;;;;;13.60;7.47;;;;;;;-1.57;82.99;98231.88;5036240;28;20052;-75
2021/11/27 02:21:37;;;;;;;15.73;6.83;;;;;;;-1.53;82.14;98230.16;5022609;28;20037;-74
2021/11/27 02:24:02;;;;;;;14.23;8.07;;;;;;;-1.54;83.04;98226.69;5031852;28;20034;-74
2021/11/27 02:26:32;;;;;;;15.37;8.97;;;;;;;-1.48;83.05;98229.31;5019968;28;20030;-74
2021/11/27 02:29:07;;;;;;;15.18;8.88;;;;;;;-1.45;82.41;98223.28;5022594;28;20053;-74
2021/11/27 02:31:33;;;;;;;13.93;7.47;;;;;;;-1.44;82.08;98223.31;5040897;28;20033;-75
2021/11/27 02:34:00;;;;;;;14.77;7.13;;;;;;;-1.45;82.76;98221.56;5020335;28;20029;-74
2021/11/27 02:36:27;;;;;;;17.23;8.83;;;;;;;-1.46;82.52;98213.81;5034162;28;20504;-74
2021/11/27 02:38:54;;;;;;;16.57;8.77;;;;;;;-1.50;83.62;98215.50;5029582;28;20499;-75
2021/11/27 02:41:20;;;;;;;18.03;9.50;;;;;;;-1.50;83.32;98204.28;5027342;28;20025;-75
2021/11/27 02:43:45;;;;;;;17.97;9.43;;;;;;;-1.48;83.62;98215.50;5022622;28;20037;-75
2021/11/27 02:46:11;;;;;;;20.80;9.57;;;;;;;-1.55;83.87;98212.03;5035741;28;20037;-74
2021/11/27 02:48:36;;;;;;;18.03;9.60;;;;;;;-1.57;83.58;98224.97;5023571;28;20029;-74
2021/11/27 02:51:02;;;;;;;18.67;8.97;;;;;;;-1.51;83.96;98224.13;5029963;28;20481;-74
2021/11/27 02:53:27;;;;;;;18.67;8.83;;;;;;;-1.50;83.08;98212.91;5018614;28;20033;-75
2021/11/27 02:55:53;;;;;;;14.87;8.10;;;;;;;-1.48;82.80;98224.13;5038281;28;20095;-74
2021/11/27 02:58:19;;;;;;;14.73;7.73;;;;;;;-1.48;82.71;98211.19;5025877;28;20101;-74
2021/11/27 03:00:47;;;;;;;14.87;7.77;;;;;;;-1.48;82.85;98206.03;5023732;28;20037;-75
2021/11/27 03:03:12;;;;;;;15.07;8.30;;;;;;;-1.47;82.78;98205.16;5023936;28;20053;-74
2021/11/27 03:05:38;;;;;;;17.00;8.40;;;;;;;-1.48;82.49;98211.19;5024127;28;20497;-74
2021/11/27 03:08:04;;;;;;;19.37;8.27;;;;;;;-1.47;82.49;98209.47;5036676;28;20053;-74
2021/11/27 03:10:30;;;;;;;17.30;9.23;;;;;;;-1.47;82.84;98206.88;5024533;28;20045;-75
2021/11/27 03:12:55;;;;;;;16.70;8.70;;;;;;;-1.47;82.04;98205.16;5024632;28;20076;-75
2021/11/27 03:15:21;;;;;;;17.97;9.07;;;;;;;-1.47;82.63;98209.47;5035561;28;20518;-74
2021/11/27 03:17:48;;;;;;;17.33;9.63;;;;;;;-1.42;82.77;98207.78;5025458;28;20042;-75
2021/11/27 03:20:15;;;;;;;19.93;9.80;;;;;;;-1.38;82.99;98209.53;5025493;28;20100;-75
2021/11/27 03:22:42;;;;;;;19.00;11.03;;;;;;;-1.35;83.03;98210.41;5022914;28;20034;-74
2021/11/27 03:25:09;;;;;;;20.17;10.63;;;;;;;-1.40;82.58;98212.09;5038462;28;20120;-75
2021/11/27 03:27:34;;;;;;;23.10;11.83;;;;;;;-1.51;83.65;98208.59;5005255;28;20040;-75
2021/11/27 03:30:07;;;;;;;21.83;11.67;;;;;;;-1.48;83.56;98208.63;5037986;28;20030;-75
2021/11/27 03:32:33;;;;;;;27.47;11.97;;;;;;;-1.45;83.85;98211.22;5021415;28;20049;-75
2021/11/27 03:35:12;;;;;;;24.57;12.80;;;;;;;-1.43;83.37;98206.91;5023282;28;20516;-75
2021/11/27 03:37:45;;;;;;;20.88;11.25;;;;;;;-1.38;83.82;98210.38;5023114;28;20033;-75
2021/11/27 03:40:16;;;;;;;24.70;12.30;;;;;;;-1.33;83.25;98211.28;5040432;28;20512;-76
2021/11/27 03:42:42;;;;;;;24.53;12.30;;;;;;;-1.33;83.72;98203.50;5022605;28;20033;-76
2021/11/27 03:45:11;;;;;;;27.00;12.10;;;;;;;-1.29;83.35;98209.56;5036807;28;20033;-76
2021/11/27 03:47:53;;;;;;;27.67;13.17;;;;;;;-1.28;83.75;98215.59;5023552;28;20034;-75
2021/11/27 03:50:18;;;;;;;29.63;14.07;;;;;;;-1.28;84.34;98218.16;5027515;28;20069;-75
2021/11/27 03:52:44;;;;;;;25.47;12.67;;;;;;;-1.19;84.54;98223.41;5021057;28;20068;-75
2021/11/27 03:55:12;;;;;;;25.93;12.67;;;;;;;-1.11;84.22;98208.75;5039674;28;20033;-75
2021/11/27 03:57:39;;;;;;;27.07;12.47;;;;;;;-0.98;83.63;98200.16;5032801;28;20487;-75
2021/11/27 04:00:06;;;;;;;28.23;13.90;;;;;;;-0.86;82.69;98204.53;5021647;28;20068;-76
2021/11/27 04:02:40;;;;;;;22.47;12.97;;;;;;;-0.77;83.39;98203.66;5023686;28;20038;-76
2021/11/27 04:05:07;;;;;;;25.73;12.77;;;;;;;-0.72;82.47;98202.81;5041356;28;20500;-76
2021/11/27 04:07:33;;;;;;;23.77;12.40;;;;;;;-0.68;82.51;98203.69;5024648;28;20037;-76
2021/11/27 04:09:58;;;;;;;30.67;15.30;;;;;;;-0.68;82.43;98206.28;5021102;28;20029;-76
2021/11/27 04:12:24;;;;;;;31.20;14.87;;;;;;;-0.70;82.14;98195.91;5040682;28;20093;-76
2021/11/27 04:14:49;;;;;;;29.90;14.93;;;;;;;-0.74;81.74;98198.47;5021535;28;20042;-75
2021/11/27 04:17:15;;;;;;;29.90;15.17;;;;;;;-0.75;81.83;98207.13;5039768;28;20060;-75
2021/11/27 04:19:43;;;;;;;37.03;17.27;;;;;;;-0.79;82.10;98203.66;5022089;28;20034;-76
2021/11/27 04:22:09;;;;;;;34.10;16.63;;;;;;;-0.82;82.86;98213.16;5036125;28;20566;-76
2021/11/27 04:24:38;;;;;;;30.93;15.30;;;;;;;-0.87;82.24;98210.53;5024022;28;20481;-76
2021/11/27 04:27:05;;;;;;;34.47;17.23;;;;;;;-0.98;83.21;98214.84;5022149;28;20061;-76
2021/11/27 04:29:31;;;;;;;32.80;16.87;;;;;;;-1.03;83.20;98201.00;5038967;28;20038;-76
2021/11/27 04:31:57;;;;;;;34.00;16.87;;;;;;;-1.09;83.66;98207.03;5039421;28;20041;-76
2021/11/27 04:34:23;;;;;;;32.73;16.00;;;;;;;-1.10;83.66;98215.69;5034817;28;20038;-76
2021/11/27 04:36:49;;;;;;;32.13;15.83;;;;;;;-1.13;83.79;98215.66;5021439;28;20034;-76
2021/11/27 04:39:14;;;;;;;33.63;17.33;;;;;;;-1.12;83.24;98213.06;5023264;28;20030;-76
2021/11/27 04:41:40;;;;;;;30.17;15.70;;;;;;;-1.07;83.42;98210.50;5034100;28;20061;-76
2021/11/27 04:44:05;;;;;;;34.17;17.60;;;;;;;-1.04;83.07;98210.50;5022007;28;20095;-76
2021/11/27 04:46:31;;;;;;;27.63;15.20;;;;;;;-1.04;83.36;98215.69;5031538;28;20029;-76
2021/11/27 04:48:56;;;;;;;30.83;16.20;;;;;;;-1.03;83.09;98217.41;5030854;28;20030;-76
2021/11/27 04:51:22;;;;;;;33.10;15.47;;;;;;;-1.03;83.27;98221.72;5025133;28;20117;-76
2021/11/27 04:53:47;;;;;;;30.13;15.23;;;;;;;-1.11;83.09;98209.63;5043093;28;20048;-76
2021/11/27 04:56:13;;;;;;;34.97;16.70;;;;;;;-1.15;83.45;98212.22;5021327;28;20507;-76
2021/11/27 04:58:39;;;;;;;33.37;18.03;;;;;;;-1.18;84.09;98212.19;5041226;28;20116;-76
2021/11/27 05:01:07;;;;;;;32.93;16.47;;;;;;;-1.17;83.95;98209.59;5039675;28;20037;-75
2021/11/27 05:03:48;;;;;;;32.73;16.37;;;;;;;-1.12;83.32;98212.22;5024403;28;20096;-76
2021/11/27 05:06:13;;;;;;;29.57;16.33;;;;;;;-1.11;83.72;98208.75;5031515;28;20037;-76
2021/11/27 05:08:39;;;;;;;31.10;16.30;;;;;;;-1.07;83.45;98210.50;5026043;28;20029;-76
2021/11/27 05:11:05;;;;;;;30.67;16.83;;;;;;;-1.08;83.69;98207.91;5021680;28;20030;-76
2021/11/27 05:13:31;;;;;;;31.43;16.17;;;;;;;-1.09;83.46;98211.38;5035523;28;20049;-76
2021/11/27 05:15:56;;;;;;;36.10;18.23;;;;;;;-1.08;83.63;98208.75;5021871;28;20038;-76
2021/11/27 05:18:22;;;;;;;41.30;18.07;;;;;;;-1.09;82.98;98212.22;5020740;28;20034;-76
2021/11/27 05:21:06;;;;;;;31.23;16.60;;;;;;;-1.12;83.85;98210.47;5021167;28;20445;-76
2021/11/27 05:23:33;;;;;;;31.57;16.17;;;;;;;-1.16;83.10;98200.09;5029731;28;20124;-76
2021/11/27 05:26:14;;;;;;;29.70;14.87;;;;;;;-1.23;83.50;98207.00;5045020;28;20488;-72
2021/11/27 05:29:11;;;;;;;33.10;17.30;;;;;;;-1.28;84.42;98198.34;5021575;28;20084;-76
2021/11/27 05:32:03;;;;;;;30.23;16.03;;;;;;;-1.24;84.09;98191.47;5024738;28;20124;-76
2021/11/27 05:34:34;;;;;;;31.33;16.57;;;;;;;-1.19;84.19;98192.34;5011314;28;20036;-77
2021/11/27 05:37:05;;;;;;;30.07;16.87;;;;;;;-1.14;84.52;98193.22;5038477;28;20072;-77
2021/11/27 05:39:32;;;;;;;30.43;17.27;;;;;;;-1.13;83.78;98200.13;5044228;28;20479;-76
2021/11/27 05:41:58;;;;;;;31.83;15.83;;;;;;;-1.09;83.10;98204.44;5027913;28;20125;-76
2021/11/27 05:44:25;;;;;;;29.93;15.40;;;;;;;-1.09;84.00;98211.38;5021298;28;20037;-77
2021/11/27 05:46:51;;;;;;;42.30;23.53;;;;;;;-1.10;83.38;98215.69;5038194;28;20041;-76
2021/11/27 05:49:17;;;;;;;37.03;20.63;;;;;;;-1.09;84.06;98211.38;5028583;28;20026;-76
2021/11/27 05:51:58;;;;;;;36.03;18.67;;;;;;;-1.10;83.72;98220.84;5028835;28;20530;-76
2021/11/27 05:54:24;;;;;;;29.73;17.07;;;;;;;-1.12;84.32;98218.25;5028443;28;20065;-77
2021/11/27 05:56:49;;;;;;;34.27;17.77;;;;;;;-1.11;84.26;98224.28;5028185;28;20057;-76
2021/11/27 05:59:15;;;;;;;30.97;16.57;;;;;;;-1.16;84.41;98211.31;5029232;28;20068;-77
2021/11/27 06:01:40;;;;;;;30.03;16.83;;;;;;;-1.15;83.96;98212.22;5029908;28;20424;-77
2021/11/27 06:04:06;;;;;;;33.67;17.67;;;;;;;-1.16;84.48;98218.22;5026498;28;20061;-76
2021/11/27 06:06:32;;;;;;;34.00;18.00;;;;;;;-1.10;84.15;98213.09;5023316;28;20043;-76
2021/11/27 06:08:57;;;;;;;35.73;17.67;;;;;;;-1.08;84.33;98219.13;5020087;28;20037;-76
2021/11/27 06:11:23;;;;;;;30.87;16.47;;;;;;;-1.06;84.04;98220.00;5027429;28;20040;-76
2021/11/27 06:13:49;;;;;;;33.83;16.67;;;;;;;-1.01;83.99;98217.41;5022905;28;20079;-76
2021/11/27 06:16:15;;;;;;;32.10;18.03;;;;;;;-1.01;83.47;98226.06;5030218;28;20041;-76
2021/11/27 06:18:40;;;;;;;34.73;17.87;;;;;;;-1.00;83.84;98225.19;5035858;28;20030;-76
2021/11/27 06:21:06;;;;;;;37.90;17.90;;;;;;;-0.99;83.68;98229.50;5022586;28;20045;-76
2021/11/27 06:23:32;;;;;;;32.27;18.20;;;;;;;-0.97;83.49;98237.25;5020996;28;20044;-76
2021/11/27 06:25:57;;;;;;;30.87;17.07;;;;;;;-0.99;83.33;98232.09;5022354;28;20106;-76
2021/11/27 06:28:23;;;;;;;36.03;18.93;;;;;;;-0.96;83.40;98237.28;5027652;28;20034;-76
2021/11/27 06:30:48;;;;;;;30.10;16.57;;;;;;;-0.93;83.33;98236.44;5021967;28;20068;-76
2021/11/27 06:33:14;;;;;;;34.77;17.30;;;;;;;-0.90;83.31;98244.19;5020691;28;20041;-76
2021/11/27 06:35:40;;;;;;;31.03;15.97;;;;;;;-0.90;83.03;98245.06;5021254;28;20033;-76
2021/11/27 06:38:05;;;;;;;30.17;18.03;;;;;;;-0.88;83.33;98251.13;5031992;28;20034;-76
2021/11/27 06:40:31;;;;;;;31.23;17.20;;;;;;;-0.84;83.51;98251.13;5018522;28;20109;-76
2021/11/27 06:43:15;;;;;;;36.03;19.17;;;;;;;-0.76;83.48;98257.19;5020825;28;20029;-76
2021/11/27 06:46:00;;;;;;;28.40;16.23;;;;;;;-0.63;83.08;98256.34;5024429;28;20037;-75
2021/11/27 06:48:27;;;;;;;34.30;18.10;;;;;;;-0.53;82.86;98249.47;5043325;28;20033;-76
2021/11/27 06:50:53;;;;;;;33.90;17.93;;;;;;;-0.43;83.17;98250.34;5020151;28;20492;-75
2021/11/27 06:53:18;;;;;;;29.57;16.77;;;;;;;-0.38;82.38;98254.66;5021680;28;20121;-77
2021/11/27 06:55:43;;;;;;;29.43;15.67;;;;;;;-0.38;82.12;98252.06;5019648;28;20070;-76
2021/11/27 06:58:09;;;;;;;35.30;18.67;;;;;;;-0.40;82.43;98250.34;5022504;28;20038;-76
2021/11/27 07:00:35;;;;;;;31.03;16.93;;;;;;;-0.37;81.97;98248.63;5036193;28;20037;-77
2021/11/27 07:03:38;;;;;;;28.97;16.00;;;;;;;-0.32;81.75;98259.84;4990656;28;20037;-77
2021/11/27 07:06:22;;;;;;;32.60;18.07;;;;;;;-0.22;82.18;98260.72;4990887;28;20092;-77
2021/11/27 07:08:47;;;;;;;33.20;16.43;;;;;;;-0.09;81.92;98262.47;4997155;28;20224;-76
2021/11/27 07:11:31;;;;;;;30.57;17.97;;;;;;;0.09;81.98;98271.97;5038109;28;20041;-76
2021/11/27 07:13:57;;;;;;;32.17;17.43;;;;;;;0.28;81.24;98278.00;5018228;28;20033;-76
2021/11/27 07:16:22;;;;;;;31.00;17.30;;;;;;;0.44;81.16;98284.88;5022048;28;20056;-75
2021/11/27 07:18:48;;;;;;;33.40;17.57;;;;;;;0.61;81.16;98277.09;5023453;28;20116;-76
2021/11/27 07:21:13;;;;;;;31.70;16.77;;;;;;;0.79;81.11;98281.38;5026297;28;20084;-76
2021/11/27 07:23:38;;;;;;;34.47;18.53;;;;;;;0.94;80.23;98270.03;5027900;28;20037;-76
2021/11/27 07:26:04;;;;;;;31.92;17.15;;;;;;;0.98;79.80;98271.78;5027216;28;20029;-77
2021/11/27 07:28:45;;;;;;;36.17;18.70;;;;;;;1.04;79.87;98273.47;5027337;28;20029;-76
2021/11/27 07:31:11;;;;;;;34.65;18.98;;;;;;;1.19;79.82;98265.63;5027080;28;20041;-76
2021/11/27 07:33:37;;;;;;;33.38;17.95;;;;;;;1.24;79.65;98263.00;5025893;28;20040;-76
2021/11/27 07:36:03;;;;;;;31.90;18.33;;;;;;;1.39;79.64;98267.22;5035604;28;20045;-75
2021/11/27 07:38:29;;;;;;;37.30;19.08;;;;;;;1.47;79.09;98273.28;5020978;28;20038;-75
2021/11/27 07:42:53;;;;;;;35.10;19.73;;;;;;;1.48;78.96;98272.41;5140577;27;20334;-77
2021/11/27 07:45:44;;;;;;;32.92;19.42;;;;;;;1.55;79.14;98279.28;5107765;28;20493;-77
2021/11/27 07:48:31;;;;;;;33.00;19.08;;;;;;;1.66;78.45;98282.69;5129862;28;20149;-77
2021/11/27 07:51:15;;;;;;;31.92;17.83;;;;;;;1.71;78.62;98291.31;5127502;28;20413;-77
2021/11/27 07:53:44;;;;;;;32.03;19.15;;;;;;;1.69;78.46;98285.25;5128528;27;20509;-76
2021/11/27 07:56:11;;;;;;;33.53;18.70;;;;;;;1.70;78.23;98279.19;5129491;27;20126;-77
2021/11/27 07:58:37;;;;;;;30.02;18.67;;;;;;;1.70;78.30;98279.19;5126016;27;20402;-77
2021/11/27 08:01:03;;;;;;;31.92;17.88;;;;;;;1.78;78.37;98279.13;5130829;27;20043;-77
2021/11/27 08:03:28;;;;;;;32.65;18.52;;;;;;;1.87;78.18;98276.47;5130800;27;20031;-76
2021/11/27 08:05:53;;;;;;;30.90;18.55;;;;;;;1.92;78.33;98261.69;5128999;27;20049;-77
2021/11/27 08:08:19;;;;;;;31.08;18.30;;;;;;;2.02;78.14;98259.00;5127772;28;20035;-76
2021/11/27 08:10:44;;;;;;;30.70;18.13;;;;;;;2.15;78.10;98253.69;5129067;27;20420;-76
2021/11/27 08:13:10;;;;;;;31.83;17.60;;;;;;;2.29;77.01;98256.16;5128719;27;20579;-76
2021/11/27 08:15:35;;;;;;;27.40;16.70;;;;;;;2.42;76.66;98251.69;5128589;28;20104;-76
2021/11/27 08:18:01;;;;;;;31.10;19.20;;;;;;;2.55;76.89;98250.69;5128513;27;20092;-76
2021/11/27 08:20:27;;;;;;;29.45;18.10;;;;;;;2.67;76.26;98246.22;5128887;27;20035;-76
2021/11/27 08:22:53;;;;;;;31.10;18.52;;;;;;;2.77;76.05;98251.31;5128461;27;20031;-76
2021/11/27 08:25:19;;;;;;;32.15;18.63;;;;;;;2.87;75.53;98241.66;5125754;27;20477;-77
2021/11/27 08:27:44;;;;;;;30.65;19.10;;;;;;;2.95;75.83;98239.81;5128712;27;20027;-77
2021/11/27 08:30:10;;;;;;;32.33;19.52;;;;;;;3.03;74.68;98247.53;5129042;27;20413;-77
2021/11/27 08:32:36;;;;;;;30.48;18.90;;;;;;;3.04;75.51;98247.53;5128149;27;20023;-77
2021/11/27 08:35:03;;;;;;;34.40;20.52;;;;;;;3.05;75.52;98251.84;5127143;27;20027;-78
2021/11/27 08:37:31;;;;;;;28.92;18.20;;;;;;;3.06;75.80;98256.19;5129987;27;20122;-79
2021/11/27 08:39:57;;;;;;;30.05;18.42;;;;;;;3.21;75.25;98262.94;5127711;28;20034;-78
2021/11/27 08:42:23;;;;;;;35.03;20.40;;;;;;;3.36;74.76;98256.69;5129595;27;20027;-80
2021/11/27 08:44:49;;;;;;;34.15;19.70;;;;;;;3.43;74.84;98257.44;5127462;28;20050;-79
2021/11/27 08:47:15;;;;;;;29.55;18.42;;;;;;;3.53;74.39;98266.00;5129641;27;20035;-77
2021/11/27 08:49:41;;;;;;;35.13;20.95;;;;;;;3.54;74.05;98276.44;5128825;27;20039;-78
2021/11/27 08:52:06;;;;;;;27.88;17.65;;;;;;;3.66;74.52;98275.38;5127389;27;20084;-78
2021/11/27 08:54:32;;;;;;;25.88;17.33;;;;;;;3.80;73.62;98270.84;5114131;28;20096;-79
2021/11/27 08:56:58;;;;;;;31.58;18.70;;;;;;;3.86;73.74;98273.34;5115708;28;20042;-78
2021/11/27 08:59:23;;;;;;;28.95;17.58;;;;;;;3.98;73.31;98277.50;5114576;28;20040;-77
2021/11/27 09:01:51;;;;;;;28.65;17.83;;;;;;;4.05;72.81;98293.94;5114459;28;20036;-78
2021/11/27 09:04:16;;;;;;;29.90;17.73;;;;;;;4.06;72.71;98287.81;5114253;28;20036;-78
2021/11/27 09:06:42;;;;;;;29.42;18.23;;;;;;;4.14;72.95;98294.66;5115677;28;20035;-78
2021/11/27 09:09:07;;;;;;;26.80;17.40;;;;;;;4.16;72.91;98297.22;5115003;28;20034;-78
2021/11/27 09:11:33;;;;;;;28.17;16.85;;;;;;;4.20;72.97;98303.28;5114612;28;20027;-78
2021/11/27 09:14:00;;;;;;;23.95;15.50;;;;;;;4.31;72.97;98298.72;5114115;28;20062;-78
2021/11/27 09:16:25;;;;;;;26.25;16.85;;;;;;;4.34;72.51;98294.31;5114425;28;20035;-77
2021/11/27 09:18:51;;;;;;;26.73;16.33;;;;;;;4.35;72.08;98297.81;5114165;28;20031;-77
2021/11/27 09:21:16;;;;;;;24.88;15.95;;;;;;;4.42;72.37;98299.41;5115217;28;20039;-78
2021/11/27 09:23:41;;;;;;;26.00;16.52;;;;;;;4.43;71.65;98297.66;5114853;27;20040;-78
2021/11/27 09:26:07;;;;;;;25.60;15.73;;;;;;;4.48;71.52;98293.22;5112930;27;20042;-78
2021/11/27 09:28:34;;;;;;;26.48;16.27;;;;;;;4.47;71.32;98294.09;5109121;27;20135;-77
2021/11/27 09:30:59;;;;;;;26.80;16.70;;;;;;;4.46;72.01;98297.63;5112230;27;20039;-77
2021/11/27 09:33:26;;;;;;;26.02;16.50;;;;;;;4.44;71.99;98302.84;5108947;27;20088;-77
2021/11/27 09:36:02;;;;;;;25.60;17.08;;;;;;;4.42;72.09;98299.41;5112753;27;20115;-77
2021/11/27 09:38:29;;;;;;;27.75;17.40;;;;;;;4.49;71.68;98300.19;5112626;27;20122;-78
2021/11/27 09:41:07;;;;;;;26.85;16.58;;;;;;;4.46;71.50;98311.53;5108160;28;20118;-76
2021/11/27 09:43:34;;;;;;;26.08;15.88;;;;;;;4.44;71.96;98312.44;5109848;28;20482;-77
2021/11/27 09:45:59;;;;;;;26.83;15.68;;;;;;;4.42;71.52;98298.56;5113483;28;20437;-78
2021/11/27 09:48:25;;;;;;;26.55;16.42;;;;;;;4.41;72.18;98302.06;5113417;28;20036;-76
2021/11/27 09:50:52;;;;;;;23.50;15.13;;;;;;;4.45;72.19;98294.13;5113664;28;20042;-75
2021/11/27 09:53:21;;;;;;;23.33;15.88;;;;;;;4.47;72.53;98301.94;5113143;28;20039;-75
2021/11/27 09:55:47;;;;;;;23.92;16.05;;;;;;;4.56;72.14;98301.81;5114847;28;20027;-78
2021/11/27 09:58:13;;;;;;;23.48;15.73;;;;;;;4.62;71.85;98296.47;5117255;28;20035;-78
2021/11/27 10:00:38;;;;;;;22.73;15.45;;;;;;;4.72;71.53;98291.94;5116093;28;20076;-76
2021/11/27 10:03:08;;;;;;;22.95;14.27;;;;;;;4.86;71.56;98286.44;5113062;28;20031;-75
2021/11/27 10:05:33;;;;;;;23.13;14.68;;;;;;;4.93;71.81;98283.69;5112266;28;20028;-76
2021/11/27 10:07:59;;;;;;;22.92;15.75;;;;;;;5.03;71.22;98282.63;5113241;28;20035;-76
2021/11/27 10:10:25;;;;;;;22.38;14.02;;;;;;;5.19;71.02;98279.69;5109135;28;20133;-76
2021/11/27 10:12:51;;;;;;;22.65;14.75;;;;;;;5.28;70.21;98274.25;5112529;28;20111;-76
2021/11/27 10:15:17;;;;;;;23.60;15.98;;;;;;;5.27;69.83;98270.78;5113026;28;20473;-76
2021/11/27 10:17:42;;;;;;;22.42;15.02;;;;;;;5.37;70.26;98268.84;5113015;28;20096;-75
2021/11/27 10:20:08;;;;;;;23.45;15.00;;;;;;;5.40;70.03;98279.25;5113074;28;20039;-76
2021/11/27 10:22:37;;;;;;;22.90;15.02;;;;;;;5.51;69.87;98281.63;5112617;27;20138;-75
2021/11/27 10:25:20;;;;;;;23.38;14.02;;;;;;;5.54;69.83;98281.56;5111624;28;20035;-75
2021/11/27 10:27:45;;;;;;;22.10;14.68;;;;;;;5.67;69.53;98276.91;5112491;28;20036;-76
2021/11/27 10:30:12;;;;;;;22.45;15.15;;;;;;;5.69;69.67;98275.97;5112750;28;20088;-75
2021/11/27 10:32:39;;;;;;;21.88;14.50;;;;;;;5.76;69.31;98284.53;5112530;28;20051;-75
2021/11/27 10:35:19;;;;;;;23.88;15.32;;;;;;;5.80;69.51;98274.88;5112710;28;20043;-77
2021/11/27 10:37:48;;;;;;;25.25;15.40;;;;;;;5.87;69.12;98274.69;5114257;27;20541;-76
2021/11/27 10:40:24;;;;;;;22.05;14.50;;;;;;;5.96;68.52;98265.78;5109688;28;20054;-76
2021/11/27 10:43:04;;;;;;;21.95;14.60;;;;;;;6.04;67.10;98269.09;5107502;28;20046;-76
2021/11/27 10:45:32;;;;;;;22.65;14.40;;;;;;;6.15;67.56;98279.31;5111868;28;20088;-76
2021/11/27 10:48:18;;;;;;;19.50;13.35;;;;;;;6.29;66.68;98274.59;5112371;28;20406;-76
2021/11/27 10:50:59;;;;;;;20.25;13.85;;;;;;;6.40;66.86;98278.72;5109283;28;20062;-76
2021/11/27 10:53:26;;;;;;;20.88;14.05;;;;;;;6.43;66.52;98276.00;5111929;28;20122;-76
2021/11/27 10:55:52;;;;;;;22.83;14.10;;;;;;;6.50;66.57;98288.91;5111072;28;20040;-76
2021/11/27 10:58:17;;;;;;;23.63;15.13;;;;;;;6.49;65.52;98281.09;5112171;28;20040;-76
2021/11/27 11:00:46;;;;;;;20.90;13.10;;;;;;;6.53;65.98;98273.09;5112232;28;20031;-76
2021/11/27 11:03:31;;;;;;;19.50;14.02;;;;;;;6.51;64.79;98274.91;5110697;28;20040;-76
2021/11/27 11:06:00;;;;;;;20.27;13.70;;;;;;;6.52;65.76;98287.13;5105667;28;20421;-76
2021/11/27 11:08:36;;;;;;;18.45;12.10;;;;;;;6.57;65.20;98287.84;5107388;27;20405;-76
2021/11/27 11:11:22;;;;;;;19.40;12.82;;;;;;;6.57;64.65;98289.59;5105154;28;20031;-76
2021/11/27 11:13:54;;;;;;;18.55;12.52;;;;;;;6.59;65.54;98283.41;5110418;27;20496;-76
2021/11/27 11:16:21;;;;;;;18.98;13.15;;;;;;;6.27;65.70;98275.53;5107828;28;20031;-75
2021/11/27 11:18:51;;;;;;;21.50;14.88;;;;;;;6.17;66.85;98268.78;5112170;27;20124;-76
2021/11/27 11:21:17;;;;;;;20.20;14.45;;;;;;;6.27;67.51;98275.53;5111701;27;20035;-76
2021/11/27 11:23:43;;;;;;;22.10;13.65;;;;;;;6.41;66.61;98276.03;5112353;28;20393;-76
2021/11/27 11:26:12;;;;;;;19.42;13.07;;;;;;;6.49;66.80;98266.22;5111805;27;20031;-76
2021/11/27 11:28:47;;;;;;;20.55;14.07;;;;;;;6.51;66.92;98290.63;5108144;28;20031;-76
2021/11/27 11:31:18;;;;;;;19.88;13.50;;;;;;;6.55;67.11;98284.41;5111658;28;20038;-76